createdAt,value
2014-07-31T00:00:15.585Z,0
2014-07-31T00:02:24.170Z,0
2014-07-31T00:04:32.755Z,0
2014-07-31T00:06:40.702Z,0
2014-07-31T00:08:48.036Z,0
2014-07-31T00:10:55.994Z,0
2014-07-31T00:13:03.936Z,0
2014-07-31T00:15:11.268Z,0
2014-07-31T00:17:19.225Z,0
2014-07-31T00:19:27.808Z,0
2014-07-31T00:21:36.389Z,0
2014-07-31T00:23:44.331Z,0
2014-07-31T00:25:51.678Z,0
2014-07-31T00:28:00.261Z,0
2014-07-31T00:30:08.844Z,0
2014-07-31T00:32:17.425Z,0
2014-07-31T00:34:26.007Z,0
2014-07-31T00:36:34.589Z,0
2014-07-31T00:38:43.173Z,0
2014-07-31T00:40:49.865Z,0
2014-07-31T00:43:26.290Z,0
2014-07-31T00:45:34.247Z,0
2014-07-31T00:47:42.831Z,0
2014-07-31T00:49:50.771Z,0
2014-07-31T00:51:58.729Z,0
2014-07-31T00:54:06.686Z,0
2014-07-31T00:56:15.268Z,0
2014-07-31T00:58:23.226Z,0
2014-07-31T01:00:31.308Z,0
2014-07-31T01:02:39.890Z,0
2014-07-31T01:04:48.473Z,0
2014-07-31T01:06:56.430Z,0
2014-07-31T01:09:05.011Z,0
2014-07-31T01:11:13.593Z,0
2014-07-31T01:13:21.551Z,0
2014-07-31T01:15:29.634Z,0
2014-07-31T01:17:36.966Z,0
2014-07-31T01:19:44.922Z,0
2014-07-31T01:21:53.005Z,0
2014-07-31T01:24:00.961Z,0
2014-07-31T01:26:08.934Z,0
2014-07-31T01:28:16.891Z,0
2014-07-31T01:30:25.474Z,0
2014-07-31T01:32:34.056Z,0
2014-07-31T01:34:41.374Z,0
2014-07-31T01:36:49.956Z,0
2014-07-31T01:38:58.538Z,0
2014-07-31T01:41:07.120Z,0
2014-07-31T01:43:15.703Z,0
2014-07-31T01:45:24.284Z,0
2014-07-31T01:47:32.243Z,0
2014-07-31T01:49:40.824Z,0
2014-07-31T01:51:49.406Z,0
2014-07-31T01:53:57.347Z,0
2014-07-31T01:56:05.961Z,0
2014-07-31T01:58:14.543Z,0
2014-07-31T02:00:22.626Z,0
2014-07-31T02:02:30.582Z,0
2014-07-31T02:04:39.180Z,0
2014-07-31T02:06:47.763Z,0
2014-07-31T02:08:55.704Z,0
2014-07-31T02:11:04.287Z,0
2014-07-31T02:13:12.244Z,0
2014-07-31T02:15:20.201Z,0
2014-07-31T02:17:28.783Z,0
2014-07-31T02:19:36.723Z,0
2014-07-31T02:21:45.307Z,0
2014-07-31T02:23:53.264Z,0
2014-07-31T02:26:01.205Z,0
2014-07-31T02:28:09.787Z,0
2014-07-31T02:30:17.746Z,0
2014-07-31T02:32:25.844Z,0
2014-07-31T02:34:33.801Z,0
2014-07-31T02:36:42.368Z,0
2014-07-31T02:38:50.325Z,0
2014-07-31T02:40:57.657Z,0
2014-07-31T02:43:05.614Z,0
2014-07-31T02:45:13.587Z,0
2014-07-31T02:47:21.527Z,0
2014-07-31T02:49:29.486Z,0
2014-07-31T02:51:37.427Z,0
2014-07-31T02:53:46.009Z,0
2014-07-31T02:55:54.592Z,0
2014-07-31T02:58:03.173Z,0
2014-07-31T03:00:11.131Z,0
2014-07-31T03:02:19.697Z,0
2014-07-31T03:04:28.278Z,0
2014-07-31T03:06:36.861Z,0
2014-07-31T03:08:45.444Z,0
2014-07-31T03:10:54.026Z,0
2014-07-31T03:13:02.609Z,0
2014-07-31T03:15:11.191Z,0
2014-07-31T03:17:19.773Z,0
2014-07-31T03:19:27.713Z,1
2014-07-31T03:21:36.297Z,2
2014-07-31T03:23:44.879Z,3
2014-07-31T03:25:53.461Z,4
2014-07-31T03:28:01.418Z,5
2014-07-31T03:30:08.734Z,7
2014-07-31T03:32:17.318Z,8
2014-07-31T03:34:25.900Z,10
2014-07-31T03:36:34.481Z,12
2014-07-31T03:38:43.065Z,13
2014-07-31T03:40:51.647Z,15
2014-07-31T03:42:59.589Z,18
2014-07-31T03:45:08.186Z,21
2014-07-31T03:47:16.752Z,23
2014-07-31T03:49:24.710Z,26
2014-07-31T03:51:33.292Z,29
2014-07-31T03:53:41.249Z,31
2014-07-31T03:55:49.331Z,34
2014-07-31T03:57:56.788Z,37
2014-07-31T04:00:04.122Z,40
2014-07-31T04:02:12.078Z,42
2014-07-31T04:04:20.019Z,45
2014-07-31T04:06:28.601Z,48
2014-07-31T04:08:37.182Z,51
2014-07-31T04:10:45.767Z,53
2014-07-31T04:12:54.349Z,56
2014-07-31T04:15:02.321Z,58
2014-07-31T04:17:10.264Z,61
2014-07-31T04:19:18.862Z,63
2014-07-31T04:21:26.803Z,65
2014-07-31T04:23:35.385Z,68
2014-07-31T04:25:43.967Z,70
2014-07-31T04:27:52.550Z,73
2014-07-31T04:30:01.131Z,78
2014-07-31T04:32:09.714Z,83
2014-07-31T04:34:17.655Z,86
2014-07-31T04:36:26.236Z,86
2014-07-31T04:38:34.194Z,87
2014-07-31T04:40:42.137Z,88
2014-07-31T04:42:50.235Z,90
2014-07-31T04:44:58.832Z,93
2014-07-31T04:47:06.789Z,95
2014-07-31T04:49:14.730Z,96
2014-07-31T04:51:23.312Z,98
2014-07-31T04:53:31.270Z,99
2014-07-31T04:55:39.228Z,101
2014-07-31T04:57:47.810Z,103
2014-07-31T04:59:55.282Z,104
2014-07-31T05:02:03.865Z,106
2014-07-31T05:04:12.447Z,107
2014-07-31T05:06:20.404Z,108
2014-07-31T05:08:28.361Z,110
2014-07-31T05:10:35.692Z,111
2014-07-31T05:12:43.651Z,112
2014-07-31T05:14:52.234Z,113
2014-07-31T05:17:00.191Z,114
2014-07-31T05:19:08.164Z,115
2014-07-31T05:21:16.746Z,117
2014-07-31T05:23:25.328Z,118
2014-07-31T05:25:33.301Z,121
2014-07-31T05:27:41.883Z,124
2014-07-31T05:29:50.465Z,126
2014-07-31T05:31:57.798Z,129
2014-07-31T05:34:06.380Z,132
2014-07-31T05:36:14.337Z,135
2014-07-31T05:38:22.294Z,138
2014-07-31T05:40:30.251Z,141
2014-07-31T05:42:38.833Z,145
2014-07-31T05:44:47.416Z,149
2014-07-31T05:46:55.998Z,153
2014-07-31T05:49:03.955Z,157
2014-07-31T05:51:11.287Z,161
2014-07-31T05:53:19.244Z,165
2014-07-31T05:55:27.826Z,168
2014-07-31T05:57:35.783Z,177
2014-07-31T05:59:44.490Z,199
2014-07-31T06:01:53.073Z,203
2014-07-31T06:04:01.654Z,207
2014-07-31T06:12:50.330Z,221
2014-07-31T06:14:58.911Z,224
2014-07-31T06:17:07.493Z,228
2014-07-31T06:19:15.434Z,231
2014-07-31T06:21:24.017Z,236
2014-07-31T06:23:31.974Z,239
2014-07-31T06:25:40.540Z,243
2014-07-31T06:27:49.122Z,247
2014-07-31T06:29:57.704Z,251
2014-07-31T06:32:06.287Z,249
2014-07-31T06:34:14.228Z,252
2014-07-31T06:36:22.811Z,255
2014-07-31T06:38:31.392Z,256
2014-07-31T06:40:39.975Z,257
2014-07-31T06:42:47.292Z,258
2014-07-31T06:44:55.873Z,264
2014-07-31T06:47:03.831Z,265
2014-07-31T06:49:11.788Z,264
2014-07-31T06:51:19.106Z,260
2014-07-31T06:53:27.062Z,267
2014-07-31T06:55:34.395Z,274
2014-07-31T06:57:42.352Z,278
2014-07-31T06:59:50.309Z,281
2014-07-31T07:01:58.876Z,287
2014-07-31T07:04:07.458Z,287
2014-07-31T07:06:15.416Z,293
2014-07-31T07:08:23.997Z,298
2014-07-31T07:10:32.579Z,300
2014-07-31T07:12:41.163Z,303
2014-07-31T07:14:49.245Z,305
2014-07-31T07:16:57.828Z,308
2014-07-31T07:19:05.784Z,308
2014-07-31T07:21:14.368Z,313
2014-07-31T07:23:22.308Z,312
2014-07-31T07:25:30.266Z,313
2014-07-31T07:27:38.207Z,313
2014-07-31T07:29:46.164Z,317
2014-07-31T07:31:54.746Z,310
2014-07-31T07:34:02.703Z,312
2014-07-31T07:36:10.662Z,314
2014-07-31T07:38:19.243Z,310
2014-07-31T07:40:27.201Z,312
2014-07-31T07:42:35.782Z,311
2014-07-31T07:44:43.740Z,312
2014-07-31T07:46:52.337Z,315
2014-07-31T07:49:00.919Z,317
2014-07-31T07:51:09.501Z,322
2014-07-31T07:53:18.083Z,315
2014-07-31T07:55:26.041Z,324
2014-07-31T07:57:34.622Z,323
2014-07-31T07:59:42.565Z,325
2014-07-31T08:01:51.147Z,331
2014-07-31T08:03:58.481Z,336
2014-07-31T08:06:07.062Z,340
2014-07-31T08:08:15.645Z,333
2014-07-31T08:10:23.601Z,331
2014-07-31T08:12:31.560Z,337
2014-07-31T08:14:39.501Z,343
2014-07-31T08:16:48.099Z,344
2014-07-31T08:18:55.415Z,350
2014-07-31T08:21:03.997Z,346
2014-07-31T08:23:12.579Z,227
2014-07-31T08:25:20.676Z,216
2014-07-31T08:27:28.635Z,340
2014-07-31T08:29:37.342Z,345
2014-07-31T08:31:45.923Z,211
2014-07-31T08:33:54.506Z,343
2014-07-31T08:36:03.104Z,350
2014-07-31T08:38:11.686Z,362
2014-07-31T08:40:19.643Z,371
2014-07-31T08:42:27.600Z,357
2014-07-31T08:44:36.182Z,340
2014-07-31T08:46:44.766Z,361
2014-07-31T08:48:53.348Z,249
2014-07-31T08:51:01.930Z,360
2014-07-31T08:53:10.579Z,372
2014-07-31T08:55:19.240Z,401
2014-07-31T08:57:27.259Z,391
2014-07-31T08:59:35.869Z,375
2014-07-31T09:01:43.864Z,362
2014-07-31T09:03:52.456Z,371
2014-07-31T09:06:01.047Z,373
2014-07-31T09:08:09.635Z,396
2014-07-31T09:10:18.236Z,349
2014-07-31T09:12:26.821Z,432
2014-07-31T09:14:35.405Z,350
2014-07-31T09:16:43.991Z,346
2014-07-31T09:18:52.572Z,341
2014-07-31T09:21:01.154Z,340
2014-07-31T09:23:09.737Z,376
2014-07-31T09:25:18.349Z,420
2014-07-31T09:27:26.932Z,342
2014-07-31T20:07:10.817Z,321
2014-07-31T20:09:19.383Z,320
2014-07-31T20:11:27.325Z,321
2014-07-31T20:14:29.143Z,317
2014-07-31T20:16:37.725Z,318
2014-07-31T20:18:46.307Z,317
2014-07-31T20:20:54.390Z,316
2014-07-31T20:23:01.723Z,315
2014-07-31T20:25:09.679Z,314
2014-07-31T20:27:17.777Z,317
2014-07-31T20:29:25.734Z,314
2014-07-31T20:31:33.674Z,315
2014-07-31T21:12:51.349Z,313
2014-07-31T21:17:19.091Z,314
2014-07-31T21:21:47.600Z,0
2014-07-31T21:26:15.968Z,0
2014-07-31T21:30:44.335Z,0
2014-07-31T21:35:12.079Z,0
2014-07-31T21:39:40.463Z,0
2014-07-31T21:44:08.830Z,0
2014-07-31T21:48:36.572Z,0
2014-07-31T21:53:03.676Z,0
2014-07-31T21:57:32.043Z,0
2014-07-31T22:02:00.426Z,0
2014-07-31T22:06:28.312Z,0
2014-07-31T22:10:56.054Z,0
2014-07-31T22:15:24.422Z,0
2014-07-31T22:19:52.288Z,0
2014-07-31T22:24:20.034Z,0
2014-07-31T22:28:47.776Z,0
2014-07-31T22:33:16.144Z,0
2014-07-31T22:37:43.887Z,0
2014-07-31T22:42:12.254Z,0
2014-07-31T22:46:40.622Z,0
2014-07-31T22:51:08.364Z,0
2014-07-31T22:55:35.469Z,0
2014-07-31T23:00:03.836Z,0
2014-07-31T23:04:31.579Z,0
2014-07-31T23:08:59.946Z,0
2014-07-31T23:13:27.064Z,0
2014-07-31T23:17:55.432Z,0
2014-07-31T23:22:23.800Z,0
2014-07-31T23:26:52.169Z,0
2014-07-31T23:31:20.552Z,0
2014-07-31T23:35:48.920Z,0
2014-07-31T23:40:17.287Z,0
2014-07-31T23:44:45.655Z,0
2014-07-31T23:49:14.023Z,0
2014-07-31T23:53:41.768Z,0
2014-07-31T23:58:09.511Z,0
